Time;durP1;ratioP1;P1;durP2;ratioP2;P2;SDS_P1;SDS_P2;PMS_P1;PMS_P2;Temp;Humidity;BMP_temperature;BMP_pressure;BME280_temperature;BME280_humidity;BME280_pressure;Samples;Min_cycle;Max_cycle;Signal;HPM_P1;HPM_P2
2023/08/15 00:00:12;;;;;;;13.60;8.50;;;26.40;79.80;;;;;;6124463;28;81402;-64
2023/08/15 00:03:13;;;;;;;17.77;8.93;;;26.40;80.00;;;;;;6130028;28;82511;-64
2023/08/15 00:06:13;;;;;;;11.15;8.07;;;26.40;79.80;;;;;;6130288;28;80631;-63
2023/08/15 00:09:14;;;;;;;12.27;8.60;;;26.40;79.50;;;;;;6129899;28;80304;-57
2023/08/15 00:12:14;;;;;;;10.77;8.07;;;26.40;79.20;;;;;;6128004;28;81188;-58
2023/08/15 00:15:15;;;;;;;13.93;9.05;;;26.40;79.20;;;;;;6115922;28;80642;-58
2023/08/15 00:18:15;;;;;;;15.57;9.43;;;26.40;79.20;;;;;;6099192;28;80432;-57
2023/08/15 00:21:16;;;;;;;16.55;9.32;;;26.40;79.00;;;;;;6106279;28;80787;-59
2023/08/15 00:24:17;;;;;;;13.80;9.45;;;26.40;78.90;;;;;;6106538;28;80721;-59
2023/08/15 00:27:18;;;;;;;16.38;9.07;;;26.40;78.90;;;;;;6112828;28;81218;-59
2023/08/15 00:30:18;;;;;;;12.30;8.50;;;26.40;78.80;;;;;;6120656;28;80665;-63
2023/08/15 00:33:19;;;;;;;11.80;8.82;;;26.40;78.80;;;;;;6126967;28;80654;-62
2023/08/15 00:36:19;;;;;;;16.60;9.00;;;26.30;78.50;;;;;;6115537;28;83936;-63
2023/08/15 00:39:20;;;;;;;13.90;9.05;;;26.30;78.80;;;;;;6129267;28;83464;-66
2023/08/15 00:42:20;;;;;;;13.18;8.50;;;26.20;78.90;;;;;;6126939;28;80760;-65
2023/08/15 00:45:21;;;;;;;14.57;9.45;;;26.20;79.00;;;;;;6121983;28;82130;-62
2023/08/15 00:48:22;;;;;;;12.50;8.35;;;26.10;79.40;;;;;;6163324;28;84463;-59
2023/08/15 00:51:23;;;;;;;12.88;9.27;;;26.10;79.40;;;;;;6141921;28;81635;-59
2023/08/15 00:54:23;;;;;;;16.20;9.35;;;26.10;79.40;;;;;;6129526;28;82158;-60
2023/08/15 00:57:24;;;;;;;11.10;8.82;;;26.20;79.30;;;;;;6117755;28;80455;-59
2023/08/15 01:00:24;;;;;;;11.70;8.55;;;26.20;79.00;;;;;;6130328;28;81195;-61
2023/08/15 01:03:25;;;;;;;13.02;9.13;;;26.20;78.90;;;;;;6130100;28;83940;-59
2023/08/15 01:06:25;;;;;;;11.07;8.27;;;26.20;78.60;;;;;;6128421;28;83383;-54
2023/08/15 01:09:26;;;;;;;10.57;7.40;;;26.30;78.70;;;;;;6127978;28;80357;-54
2023/08/15 01:12:27;;;;;;;11.85;8.85;;;26.30;78.60;;;;;;6128820;28;83734;-52
2023/08/15 01:15:27;;;;;;;13.52;9.32;;;26.30;78.60;;;;;;6130162;28;81474;-53
2023/08/15 01:18:30;;;;;;;10.93;8.77;;;26.30;78.50;;;;;;6120388;28;81621;-53
2023/08/15 01:21:30;;;;;;;13.75;8.27;;;26.30;78.40;;;;;;6129835;28;82099;-54
2023/08/15 01:24:32;;;;;;;11.15;7.97;;;26.30;78.10;;;;;;6109708;28;80456;-54
2023/08/15 01:27:33;;;;;;;9.95;7.70;;;26.30;78.00;;;;;;6122406;28;81500;-57
2023/08/15 01:30:33;;;;;;;10.10;7.53;;;26.30;78.00;;;;;;6129521;28;80952;-53
2023/08/15 01:33:34;;;;;;;10.07;8.10;;;26.30;77.90;;;;;;6136596;28;80566;-56
2023/08/15 01:36:34;;;;;;;16.80;8.50;;;26.30;78.00;;;;;;6123531;28;81203;-51
2023/08/15 01:39:35;;;;;;;10.60;7.78;;;26.30;77.80;;;;;;6110694;28;80743;-51
2023/08/15 01:42:36;;;;;;;9.18;7.47;;;26.30;77.40;;;;;;6113200;28;81074;-53
2023/08/15 01:45:37;;;;;;;11.23;7.88;;;26.20;77.00;;;;;;6119270;28;80385;-54
2023/08/15 01:48:37;;;;;;;14.43;8.02;;;26.20;77.50;;;;;;6117697;28;82011;-53
2023/08/15 01:51:38;;;;;;;11.27;8.35;;;26.20;77.30;;;;;;6105197;28;80320;-54
2023/08/15 01:54:40;;;;;;;12.68;8.15;;;26.20;77.20;;;;;;6115633;28;81106;-53
2023/08/15 01:57:41;;;;;;;9.48;7.35;;;26.20;77.10;;;;;;6116754;28;83038;-54
2023/08/15 02:00:41;;;;;;;11.95;7.85;;;26.20;76.70;;;;;;6128931;28;83860;-57
2023/08/15 02:03:42;;;;;;;13.35;8.10;;;26.20;76.50;;;;;;6121343;28;81791;-58
2023/08/15 02:06:44;;;;;;;11.73;7.70;;;26.00;76.40;;;;;;6117421;28;82117;-58
2023/08/15 02:09:44;;;;;;;13.60;7.95;;;25.90;76.60;;;;;;6123300;28;82979;-56
2023/08/15 02:12:45;;;;;;;12.30;8.23;;;26.00;76.90;;;;;;6139943;28;83150;-57
2023/08/15 02:15:46;;;;;;;10.32;7.63;;;26.00;77.00;;;;;;6125068;28;83508;-56
2023/08/15 02:18:47;;;;;;;12.07;8.82;;;26.10;76.70;;;;;;6121573;28;83319;-61
2023/08/15 02:21:47;;;;;;;11.55;7.45;;;26.00;76.50;;;;;;6105529;28;88100;-63
2023/08/15 02:24:48;;;;;;;15.27;9.32;;;25.80;76.40;;;;;;6109408;28;83456;-62
2023/08/15 02:27:48;;;;;;;11.68;7.80;;;25.60;76.80;;;;;;6120099;28;80387;-61
2023/08/15 02:30:49;;;;;;;11.98;6.93;;;25.60;77.40;;;;;;6129153;28;80603;-61
2023/08/15 02:33:49;;;;;;;12.05;7.05;;;25.70;76.90;;;;;;6162572;28;81809;-64
2023/08/15 02:36:50;;;;;;;11.45;7.80;;;25.70;76.80;;;;;;6119934;28;80561;-63
2023/08/15 02:39:50;;;;;;;11.45;7.63;;;25.60;76.30;;;;;;6116676;28;80683;-62
2023/08/15 02:42:51;;;;;;;8.63;6.85;;;25.60;76.20;;;;;;6116394;28;80437;-62
2023/08/15 02:45:52;;;;;;;11.75;7.40;;;25.60;76.00;;;;;;6121187;28;81261;-63
2023/08/15 02:48:52;;;;;;;10.88;7.40;;;25.60;75.30;;;;;;6129406;28;82323;-62
2023/08/15 02:51:53;;;;;;;9.80;7.10;;;25.70;75.30;;;;;;6119014;28;81340;-60
2023/08/15 02:54:53;;;;;;;11.15;7.35;;;25.80;75.10;;;;;;6115307;28;80950;-61
2023/08/15 02:57:54;;;;;;;10.70;7.53;;;25.80;74.80;;;;;;6123426;28;80915;-63
2023/08/15 03:00:54;;;;;;;16.10;8.18;;;25.90;75.00;;;;;;6127557;28;80321;-65
2023/08/15 03:03:55;;;;;;;8.13;6.80;;;25.90;74.90;;;;;;6127711;28;80680;-64
2023/08/15 03:06:55;;;;;;;8.52;6.50;;;25.90;74.70;;;;;;6126326;28;82137;-64
2023/08/15 03:09:56;;;;;;;9.38;7.45;;;25.90;74.40;;;;;;6139487;28;81095;-65
2023/08/15 03:12:57;;;;;;;10.48;7.10;;;25.90;74.80;;;;;;6130192;28;83410;-65
2023/08/15 03:15:58;;;;;;;10.23;7.30;;;25.90;74.80;;;;;;6126317;28;83272;-63
2023/08/15 03:19:02;;;;;;;9.27;7.20;;;25.90;74.90;;;;;;6147848;28;82877;-64
2023/08/15 03:22:03;;;;;;;12.52;7.55;;;25.90;75.10;;;;;;6125909;28;83057;-64
2023/08/15 03:25:04;;;;;;;9.18;6.68;;;25.90;74.60;;;;;;6125650;28;82783;-63
2023/08/15 03:28:04;;;;;;;8.13;6.80;;;25.90;74.60;;;;;;6121320;28;83216;-63
2023/08/15 03:31:06;;;;;;;12.32;6.78;;;25.90;74.30;;;;;;6107456;28;80387;-59
2023/08/15 03:34:08;;;;;;;9.05;6.53;;;25.90;74.00;;;;;;6163802;28;87987;-58
2023/08/15 03:37:09;;;;;;;9.55;7.32;;;25.90;73.90;;;;;;6109006;28;82006;-58
2023/08/15 03:40:09;;;;;;;21.17;7.07;;;25.90;73.50;;;;;;6105891;28;81880;-58
2023/08/15 03:43:10;;;;;;;9.27;6.82;;;25.90;73.50;;;;;;6125270;28;83188;-59
2023/08/15 03:46:11;;;;;;;10.27;6.88;;;25.90;73.30;;;;;;6111885;28;81913;-58
2023/08/15 03:49:11;;;;;;;15.38;7.82;;;25.90;73.10;;;;;;6111512;28;83749;-57
2023/08/15 03:52:12;;;;;;;10.68;6.00;;;26.00;73.00;;;;;;6116558;28;80859;-65
2023/08/15 03:55:12;;;;;;;9.40;6.97;;;25.90;72.70;;;;;;6136489;28;83600;-62
2023/08/15 03:58:13;;;;;;;10.85;6.68;;;26.00;72.50;;;;;;6129621;28;80961;-62
2023/08/15 04:01:13;;;;;;;8.60;6.88;;;25.90;72.30;;;;;;6124507;28;83607;-62
2023/08/15 04:04:14;;;;;;;10.23;7.38;;;25.90;72.10;;;;;;6124289;28;83286;-63
2023/08/15 04:07:14;;;;;;;11.95;7.40;;;25.90;72.10;;;;;;6134217;28;83497;-63
2023/08/15 04:10:16;;;;;;;11.95;7.28;;;26.00;72.20;;;;;;6124117;28;83385;-54
2023/08/15 04:13:17;;;;;;;11.07;7.68;;;26.00;72.30;;;;;;6127121;28;83304;-53
2023/08/15 04:16:19;;;;;;;12.00;7.53;;;26.00;72.40;;;;;;6107720;28;81765;-56
2023/08/15 04:19:20;;;;;;;11.35;7.28;;;26.00;72.60;;;;;;6156316;28;83056;-53
2023/08/15 04:22:20;;;;;;;11.13;7.80;;;26.00;72.60;;;;;;6144756;28;83578;-53
2023/08/15 04:25:21;;;;;;;11.85;7.18;;;26.00;72.40;;;;;;6123200;28;83512;-55
2023/08/15 04:28:21;;;;;;;12.57;7.68;;;26.00;72.60;;;;;;6107802;28;83204;-64
2023/08/15 04:31:22;;;;;;;12.63;6.70;;;26.00;72.60;;;;;;6114544;28;87333;-65
2023/08/15 04:34:23;;;;;;;9.05;6.40;;;26.00;72.60;;;;;;6120929;28;80962;-64
2023/08/15 04:37:24;;;;;;;12.52;7.68;;;26.00;73.00;;;;;;6115894;28;83469;-62
2023/08/15 04:40:24;;;;;;;8.70;6.97;;;26.00;72.90;;;;;;6124483;28;83728;-62
2023/08/15 04:43:26;;;;;;;9.88;7.47;;;26.00;72.90;;;;;;6110301;28;80556;-62
2023/08/15 04:46:26;;;;;;;10.93;7.63;;;26.00;73.40;;;;;;6108586;28;80708;-62
2023/08/15 04:49:27;;;;;;;13.07;8.57;;;26.00;74.60;;;;;;6095101;28;83676;-68
2023/08/15 04:52:28;;;;;;;14.07;8.05;;;26.10;75.00;;;;;;6121695;28;83228;-66
2023/08/15 04:55:28;;;;;;;10.10;7.50;;;26.00;75.30;;;;;;6133771;28;83665;-64
2023/08/15 04:58:29;;;;;;;16.83;7.47;;;26.10;75.90;;;;;;6129004;28;83998;-65
2023/08/15 05:01:29;;;;;;;15.48;8.20;;;26.10;79.00;;;;;;6104639;28;83780;-65
2023/08/15 05:04:30;;;;;;;22.90;8.38;;;26.10;78.30;;;;;;6112196;28;80118;-64
2023/08/15 05:07:30;;;;;;;12.55;7.20;;;26.20;79.60;;;;;;6128104;28;81909;-64
2023/08/15 05:10:31;;;;;;;10.88;7.50;;;26.20;78.10;;;;;;6138616;28;83223;-60
2023/08/15 05:13:31;;;;;;;12.23;8.57;;;26.30;78.70;;;;;;6130753;28;83563;-64
2023/08/15 05:16:32;;;;;;;12.95;8.23;;;26.30;79.70;;;;;;6131462;28;82233;-64
2023/08/15 05:19:33;;;;;;;11.05;8.73;;;26.30;79.80;;;;;;6144638;28;82599;-63
2023/08/15 05:22:33;;;;;;;16.35;9.65;;;26.30;82.20;;;;;;6121240;28;83212;-61
2023/08/15 05:25:34;;;;;;;14.15;8.27;;;26.30;82.00;;;;;;6123147;28;82736;-61
2023/08/15 05:28:35;;;;;;;19.25;9.10;;;26.40;83.70;;;;;;6125405;28;83495;-63
2023/08/15 05:31:36;;;;;;;19.33;8.90;;;26.40;81.80;;;;;;6114164;28;80460;-61
2023/08/15 05:34:36;;;;;;;12.15;8.48;;;26.40;84.10;;;;;;6127661;28;84048;-62
2023/08/15 05:37:37;;;;;;;13.45;8.70;;;26.40;81.50;;;;;;6111089;28;80780;-64
2023/08/15 05:40:39;;;;;;;15.25;9.65;;;26.40;81.20;;;;;;6117506;28;83361;-67
2023/08/15 05:43:39;;;;;;;14.45;7.95;;;26.30;80.60;;;;;;6126208;28;83650;-64
2023/08/15 05:46:40;;;;;;;15.20;9.25;;;26.30;80.30;;;;;;6110491;28;82901;-61
2023/08/15 05:49:40;;;;;;;12.18;8.52;;;26.30;80.20;;;;;;6120788;28;80575;-72
2023/08/15 05:52:41;;;;;;;14.60;8.48;;;26.30;80.40;;;;;;6140004;28;80514;-68
2023/08/15 05:55:42;;;;;;;14.23;8.75;;;26.40;80.70;;;;;;6131163;28;81478;-70
2023/08/15 05:58:42;;;;;;;15.63;8.63;;;26.40;80.60;;;;;;6137103;28;81730;-70
2023/08/15 06:01:43;;;;;;;17.27;8.60;;;26.40;79.80;;;;;;6128704;28;80694;-71
2023/08/15 06:04:44;;;;;;;17.20;8.95;;;26.40;80.00;;;;;;6125695;28;80801;-65
2023/08/15 06:07:46;;;;;;;15.85;8.98;;;26.40;81.00;;;;;;6117132;28;81601;-65
2023/08/15 06:10:46;;;;;;;18.83;8.95;;;26.40;80.40;;;;;;6125147;28;80795;-67
2023/08/15 06:13:47;;;;;;;15.30;8.73;;;26.40;81.60;;;;;;6127461;28;81546;-65
2023/08/15 06:16:48;;;;;;;14.45;8.95;;;26.30;82.10;;;;;;6133534;28;82897;-56
2023/08/15 06:19:48;;;;;;;12.90;8.57;;;26.40;82.00;;;;;;6160187;28;80717;-57
2023/08/15 06:22:49;;;;;;;16.60;9.10;;;26.40;81.50;;;;;;6128005;28;81239;-55
2023/08/15 06:25:49;;;;;;;14.85;8.63;;;26.40;81.20;;;;;;6125345;28;82498;-55
2023/08/15 06:28:50;;;;;;;15.15;8.30;;;26.40;80.40;;;;;;6129153;28;81878;-59
2023/08/15 06:31:50;;;;;;;12.50;7.22;;;26.20;76.30;;;;;;6131691;28;81670;-55
2023/08/15 06:34:51;;;;;;;12.25;7.35;;;25.90;71.90;;;;;;6146323;28;80699;-59
2023/08/15 06:37:51;;;;;;;14.20;7.40;;;25.60;69.30;;;;;;6128340;28;80452;-57
2023/08/15 06:40:52;;;;;;;19.80;7.40;;;25.50;67.50;;;;;;6126038;28;80561;-58
2023/08/15 06:43:52;;;;;;;12.18;7.57;;;25.30;66.20;;;;;;6125977;28;81903;-58
2023/08/15 06:46:53;;;;;;;9.88;6.28;;;25.20;65.40;;;;;;6114565;28;80586;-59
2023/08/15 06:49:54;;;;;;;10.88;6.20;;;25.00;65.00;;;;;;6126715;28;80433;-59
2023/08/15 06:52:54;;;;;;;8.27;5.97;;;24.90;64.20;;;;;;6129833;28;80800;-72
2023/08/15 06:55:55;;;;;;;7.65;6.00;;;24.90;63.80;;;;;;6124930;28;80550;-61
2023/08/15 06:58:55;;;;;;;10.10;6.45;;;24.80;62.90;;;;;;6126199;28;80719;-62
2023/08/15 07:01:56;;;;;;;11.52;6.35;;;24.80;62.50;;;;;;6139236;28;80212;-64
2023/08/15 07:04:56;;;;;;;21.65;6.95;;;24.70;61.90;;;;;;6128017;28;82334;-64
2023/08/15 07:07:59;;;;;;;10.57;5.78;;;24.60;60.90;;;;;;6126445;28;80428;-66
2023/08/15 07:10:59;;;;;;;14.73;5.93;;;24.60;61.00;;;;;;6130266;28;81341;-61
2023/08/15 07:14:00;;;;;;;6.13;5.28;;;24.40;61.10;;;;;;6127389;28;80506;-55
2023/08/15 07:17:01;;;;;;;7.07;5.22;;;24.60;65.90;;;;;;6145208;28;80515;-60
2023/08/15 07:20:02;;;;;;;10.98;6.03;;;24.70;72.10;;;;;;6141415;28;81216;-58
2023/08/15 07:23:03;;;;;;;7.25;5.68;;;24.70;74.10;;;;;;6125980;28;83157;-59
2023/08/15 07:26:03;;;;;;;10.05;5.72;;;24.60;70.30;;;;;;6120012;28;80839;-59
2023/08/15 07:29:04;;;;;;;13.60;6.05;;;24.50;67.60;;;;;;6116067;28;81340;-60
2023/08/15 07:32:06;;;;;;;12.15;5.95;;;24.50;65.70;;;;;;6121622;28;81046;-65
2023/08/15 07:35:07;;;;;;;10.82;6.13;;;24.30;64.60;;;;;;6155153;28;80919;-61
2023/08/15 07:38:08;;;;;;;10.52;5.80;;;24.30;64.60;;;;;;6125290;28;83797;-61
2023/08/15 07:41:08;;;;;;;16.60;5.38;;;24.30;64.50;;;;;;6121923;28;80581;-59
2023/08/15 07:44:09;;;;;;;19.70;10.55;;;24.30;63.70;;;;;;6130938;28;80762;-58
2023/08/15 07:47:09;;;;;;;33.97;15.82;;;24.30;62.90;;;;;;6100995;28;83240;-61
2023/08/15 07:50:10;;;;;;;20.52;11.65;;;24.30;62.40;;;;;;6105923;28;83110;-51
2023/08/15 07:53:10;;;;;;;24.38;9.80;;;24.10;61.60;;;;;;6107124;28;83078;-53
2023/08/15 07:56:11;;;;;;;21.50;8.10;;;24.10;61.10;;;;;;6119691;28;82214;-58
2023/08/15 07:59:11;;;;;;;13.00;7.05;;;24.10;63.90;;;;;;6108078;28;80890;-59
2023/08/15 08:02:12;;;;;;;15.07;7.07;;;24.50;67.70;;;;;;6108772;28;81153;-58
2023/08/15 08:05:12;;;;;;;15.02;7.05;;;24.70;69.00;;;;;;6108126;28;80556;-58
2023/08/15 08:08:14;;;;;;;10.35;6.88;;;24.90;69.00;;;;;;6106053;28;81289;-58
2023/08/15 08:11:14;;;;;;;12.80;7.00;;;25.10;69.10;;;;;;6106006;28;81427;-58
2023/08/15 08:14:15;;;;;;;10.57;6.72;;;25.20;69.30;;;;;;6105437;28;80846;-58
2023/08/15 08:17:15;;;;;;;11.13;6.22;;;25.30;69.60;;;;;;6114558;28;80403;-58
2023/08/15 08:20:17;;;;;;;10.75;5.97;;;25.40;69.80;;;;;;6111745;28;81214;-57
2023/08/15 08:23:17;;;;;;;10.85;5.63;;;25.50;70.10;;;;;;6119017;28;81120;-57
2023/08/15 08:26:18;;;;;;;9.55;5.20;;;25.60;70.30;;;;;;6111681;28;80487;-64
2023/08/15 08:29:19;;;;;;;9.05;4.97;;;25.60;70.40;;;;;;6133352;28;80551;-62
2023/08/15 08:32:19;;;;;;;6.50;4.90;;;25.70;70.30;;;;;;6139000;28;80490;-62
2023/08/15 08:35:20;;;;;;;7.22;4.82;;;25.80;70.70;;;;;;6144984;28;80431;-61
2023/08/15 08:38:20;;;;;;;9.27;4.95;;;25.90;70.60;;;;;;6125981;28;80418;-62
2023/08/15 08:41:21;;;;;;;8.35;4.97;;;25.90;70.70;;;;;;6118226;28;80323;-62
2023/08/15 08:44:21;;;;;;;9.65;5.10;;;26.00;70.90;;;;;;6108421;28;84061;-61
2023/08/15 08:47:22;;;;;;;10.93;4.95;;;26.00;70.70;;;;;;6106504;28;80650;-62
2023/08/15 08:50:23;;;;;;;5.47;4.55;;;26.10;69.80;;;;;;6114063;28;88507;-62
2023/08/15 08:53:23;;;;;;;7.80;5.35;;;26.20;69.40;;;;;;6145187;28;80418;-61
2023/08/15 08:56:24;;;;;;;10.70;5.40;;;26.20;68.80;;;;;;6149606;28;80423;-63
2023/08/15 08:59:24;;;;;;;9.07;4.80;;;26.20;68.80;;;;;;6134985;28;80805;-62
2023/08/15 09:02:25;;;;;;;5.75;4.30;;;26.30;68.40;;;;;;6130170;28;81242;-58
2023/08/15 09:05:26;;;;;;;6.68;5.43;;;26.30;69.00;;;;;;6129901;28;80402;-58
2023/08/15 09:08:27;;;;;;;6.30;4.70;;;26.30;68.40;;;;;;6129633;28;80459;-58
2023/08/15 09:11:27;;;;;;;7.05;5.00;;;26.40;68.60;;;;;;6117911;28;80877;-58
2023/08/15 09:14:28;;;;;;;5.88;4.28;;;26.40;68.30;;;;;;6116701;28;80377;-57
2023/08/15 09:17:28;;;;;;;5.38;4.20;;;26.40;68.10;;;;;;6110497;28;80666;-57
2023/08/15 09:20:29;;;;;;;6.85;4.90;;;26.50;68.00;;;;;;6120132;28;82569;-57
2023/08/15 09:23:29;;;;;;;5.53;4.65;;;26.50;68.00;;;;;;6118421;28;81207;-58
2023/08/15 09:26:30;;;;;;;5.28;4.30;;;26.50;68.00;;;;;;6105639;28;82916;-58
2023/08/15 09:29:30;;;;;;;8.07;4.75;;;26.50;67.80;;;;;;6122967;28;81219;-58
2023/08/15 09:32:31;;;;;;;5.35;4.22;;;26.50;67.80;;;;;;6140775;28;82922;-58
2023/08/15 09:35:32;;;;;;;6.60;4.60;;;26.60;67.90;;;;;;6142013;28;80593;-58
2023/08/15 09:38:33;;;;;;;5.70;3.85;;;26.60;67.90;;;;;;6130389;28;81023;-57
2023/08/15 09:41:33;;;;;;;5.85;4.35;;;26.60;67.80;;;;;;6129110;28;80914;-58
2023/08/15 09:44:37;;;;;;;5.95;4.35;;;26.60;67.80;;;;;;6126071;28;80501;-58
2023/08/15 09:47:39;;;;;;;6.13;4.30;;;26.60;67.90;;;;;;6105692;28;80335;-59
2023/08/15 09:50:41;;;;;;;7.45;4.72;;;26.60;67.90;;;;;;6116003;28;82252;-59
2023/08/15 09:53:42;;;;;;;8.27;4.15;;;26.70;67.80;;;;;;6114044;28;80682;-59
2023/08/15 09:56:42;;;;;;;5.18;3.95;;;26.70;67.90;;;;;;6106974;28;81346;-57
2023/08/15 09:59:43;;;;;;;5.50;4.43;;;26.70;67.90;;;;;;6125596;28;81570;-62
2023/08/15 10:02:44;;;;;;;7.82;5.10;;;26.70;67.90;;;;;;6129809;28;80559;-61
2023/08/15 10:05:44;;;;;;;5.43;4.60;;;26.70;67.90;;;;;;6115329;28;81083;-62
2023/08/15 10:08:45;;;;;;;5.95;4.22;;;26.70;68.00;;;;;;6108419;28;80950;-64
2023/08/15 10:11:45;;;;;;;7.55;4.35;;;26.80;68.00;;;;;;6106023;28;80311;-62
2023/08/15 10:14:46;;;;;;;5.80;4.63;;;26.80;68.10;;;;;;6117923;28;80553;-63
2023/08/15 10:17:46;;;;;;;4.75;3.67;;;26.80;68.10;;;;;;6125877;28;82480;-62
2023/08/15 10:20:47;;;;;;;5.32;4.20;;;26.80;68.30;;;;;;6108885;28;80845;-62
2023/08/15 10:23:47;;;;;;;5.32;4.20;;;26.80;68.30;;;;;;6108835;28;80862;-62
2023/08/15 10:26:48;;;;;;;4.32;3.92;;;26.80;68.30;;;;;;6109624;28;81173;-63
2023/08/15 10:29:49;;;;;;;8.10;4.90;;;26.80;68.40;;;;;;6123694;28;80384;-62
2023/08/15 10:32:49;;;;;;;5.30;4.28;;;26.80;68.40;;;;;;6136901;28;80496;-62
2023/08/15 10:35:50;;;;;;;6.15;4.57;;;26.80;68.50;;;;;;6131292;28;80349;-60
2023/08/15 10:38:51;;;;;;;5.80;4.40;;;26.90;68.50;;;;;;6127786;28;81438;-59
2023/08/15 10:41:51;;;;;;;5.75;5.03;;;26.80;68.60;;;;;;6128192;28;80619;-59
2023/08/15 10:44:52;;;;;;;6.55;4.43;;;26.80;68.50;;;;;;6123012;28;80701;-58
2023/08/15 10:47:53;;;;;;;5.07;4.57;;;26.90;68.80;;;;;;6109553;28;80436;-57
2023/08/15 10:50:54;;;;;;;6.25;4.35;;;26.90;68.80;;;;;;6117461;28;80354;-57
2023/08/15 10:53:55;;;;;;;5.15;4.45;;;26.90;68.90;;;;;;6118043;28;80935;-63
2023/08/15 10:56:55;;;;;;;5.82;4.50;;;26.90;68.90;;;;;;6114932;28;80447;-63
2023/08/15 10:59:56;;;;;;;4.93;4.07;;;26.90;69.10;;;;;;6127632;28;80536;-63
2023/08/15 11:02:56;;;;;;;5.10;4.60;;;26.90;69.30;;;;;;6128079;28;80891;-61
2023/08/15 11:05:57;;;;;;;4.80;4.30;;;26.90;69.10;;;;;;6125456;28;81432;-62
2023/08/15 11:08:57;;;;;;;5.53;4.70;;;26.90;69.30;;;;;;6125835;28;82294;-62
2023/08/15 11:11:58;;;;;;;4.72;4.07;;;26.90;69.00;;;;;;6127500;28;81481;-58
2023/08/15 11:14:58;;;;;;;5.95;4.68;;;26.90;69.30;;;;;;6127089;28;80637;-59
2023/08/15 11:17:59;;;;;;;4.25;3.85;;;27.00;69.30;;;;;;6142305;28;81339;-59
2023/08/15 11:21:01;;;;;;;6.55;4.32;;;27.00;69.30;;;;;;6134566;28;82651;-59
2023/08/15 11:24:01;;;;;;;6.93;4.63;;;26.90;69.30;;;;;;6119119;28;80765;-60
2023/08/15 11:27:02;;;;;;;4.78;4.28;;;27.00;69.30;;;;;;6103248;28;81743;-58
2023/08/15 11:30:02;;;;;;;5.00;4.32;;;26.90;69.30;;;;;;6121268;28;82442;-62
2023/08/15 11:33:03;;;;;;;4.90;4.00;;;27.00;69.10;;;;;;6153201;28;80909;-64
2023/08/15 11:36:03;;;;;;;5.25;4.53;;;27.00;69.30;;;;;;6141316;28;81417;-62
2023/08/15 11:39:04;;;;;;;6.00;4.40;;;26.90;69.30;;;;;;6126762;28;80661;-62
2023/08/15 11:42:04;;;;;;;5.18;4.47;;;27.00;69.20;;;;;;6131721;28;80678;-64
2023/08/15 11:45:05;;;;;;;5.13;4.60;;;27.00;69.10;;;;;;6141889;28;80710;-63
2023/08/15 11:48:06;;;;;;;4.45;4.05;;;27.00;69.00;;;;;;6122665;28;81190;-58
2023/08/15 11:51:06;;;;;;;5.60;4.15;;;27.00;68.90;;;;;;6127107;28;80475;-59
2023/08/15 11:54:07;;;;;;;5.13;4.28;;;27.00;69.30;;;;;;6118982;28;80437;-58
2023/08/15 11:57:07;;;;;;;4.30;3.90;;;27.00;69.10;;;;;;6108710;28;81652;-58
2023/08/15 12:00:09;;;;;;;5.50;4.30;;;27.00;69.00;;;;;;6108779;28;81380;-57
2023/08/15 12:03:09;;;;;;;9.85;5.25;;;27.00;69.10;;;;;;6117845;28;80498;-58
2023/08/15 12:06:14;;;;;;;5.88;4.20;;;27.10;68.90;;;;;;6113182;28;81146;-60
2023/08/15 12:09:15;;;;;;;6.45;4.53;;;27.10;69.00;;;;;;6110339;28;80484;-60
2023/08/15 12:12:16;;;;;;;6.00;4.28;;;27.00;68.80;;;;;;6121602;28;80203;-63
2023/08/15 12:15:16;;;;;;;6.60;4.40;;;27.10;68.90;;;;;;6149144;28;81279;-61
2023/08/15 12:18:17;;;;;;;5.25;4.13;;;27.10;68.70;;;;;;6137430;28;80563;-62
2023/08/15 12:21:18;;;;;;;5.28;4.38;;;27.10;68.80;;;;;;6142498;28;82781;-62
2023/08/15 12:24:18;;;;;;;6.88;4.38;;;27.10;68.50;;;;;;6131844;28;81544;-62
2023/08/15 12:27:19;;;;;;;4.93;4.05;;;27.10;68.50;;;;;;6117500;28;80674;-61
2023/08/15 12:30:20;;;;;;;6.18;4.72;;;27.10;68.10;;;;;;6108386;28;80909;-60
2023/08/15 12:33:20;;;;;;;6.95;4.10;;;27.10;68.40;;;;;;6146375;28;80942;-61
2023/08/15 12:36:21;;;;;;;5.63;4.30;;;27.10;68.40;;;;;;6145316;28;80478;-60
2023/08/15 12:39:21;;;;;;;5.25;4.20;;;27.10;68.20;;;;;;6135084;28;80471;-61
2023/08/15 12:42:22;;;;;;;7.43;4.25;;;27.10;68.60;;;;;;6130759;28;80997;-75
2023/08/15 12:45:22;;;;;;;6.00;4.00;;;27.10;68.50;;;;;;6129804;28;81147;-74
2023/08/15 12:48:23;;;;;;;7.15;4.40;;;27.10;68.60;;;;;;6133286;28;80869;-74
2023/08/15 12:51:23;;;;;;;5.10;4.07;;;27.10;68.60;;;;;;6120012;28;82752;-74
2023/08/15 12:54:24;;;;;;;7.10;4.20;;;27.10;68.50;;;;;;6119698;28;80806;-73
2023/08/15 12:57:24;;;;;;;6.00;4.18;;;27.10;68.20;;;;;;6107128;28;81448;-70
2023/08/15 13:00:25;;;;;;;5.70;4.20;;;27.10;67.90;;;;;;6122374;28;81315;-61
2023/08/15 13:03:25;;;;;;;4.05;3.53;;;27.10;68.10;;;;;;6115421;28;81036;-60
2023/08/15 13:06:26;;;;;;;6.70;3.55;;;27.10;68.10;;;;;;6111744;28;81183;-62
2023/08/15 13:09:26;;;;;;;5.28;3.80;;;27.10;68.00;;;;;;6112012;28;82646;-61
2023/08/15 13:12:27;;;;;;;5.28;4.03;;;27.10;68.00;;;;;;6127078;28;80527;-62
2023/08/15 13:15:27;;;;;;;5.32;4.68;;;27.10;67.60;;;;;;6116100;28;80510;-62
2023/08/15 13:18:28;;;;;;;6.53;4.45;;;27.10;67.60;;;;;;6127867;28;80617;-61
2023/08/15 13:21:29;;;;;;;5.30;4.28;;;27.10;67.70;;;;;;6117443;28;80475;-61
2023/08/15 13:24:29;;;;;;;4.25;3.65;;;27.10;67.80;;;;;;6111618;28;80899;-61
2023/08/15 13:27:30;;;;;;;7.72;4.63;;;27.10;67.80;;;;;;6108623;28;80835;-63
2023/08/15 13:30:30;;;;;;;5.68;4.35;;;27.10;67.90;;;;;;6130266;28;80419;-61
2023/08/15 13:33:31;;;;;;;6.93;4.78;;;27.10;67.40;;;;;;6149444;28;80632;-61
2023/08/15 13:36:31;;;;;;;5.88;3.95;;;27.10;67.40;;;;;;6142400;28;81560;-62
2023/08/15 13:39:32;;;;;;;7.07;4.15;;;27.10;67.70;;;;;;6135132;28;83966;-60
2023/08/15 13:42:32;;;;;;;4.70;4.18;;;27.10;67.50;;;;;;6128178;28;83531;-60
2023/08/15 13:45:33;;;;;;;5.63;4.13;;;27.10;67.50;;;;;;6119655;28;80520;-61
2023/08/15 13:48:33;;;;;;;5.20;3.92;;;27.10;67.60;;;;;;6104820;28;82388;-60
2023/08/15 13:51:34;;;;;;;5.65;3.97;;;27.10;67.80;;;;;;6116443;28;80274;-61
2023/08/15 13:54:34;;;;;;;4.78;3.80;;;27.10;67.70;;;;;;6122069;28;81870;-62
2023/08/15 13:57:35;;;;;;;4.85;4.13;;;27.10;67.60;;;;;;6139525;28;80437;-58
2023/08/15 14:00:35;;;;;;;5.25;4.32;;;27.10;67.80;;;;;;6141369;28;80637;-58
2023/08/15 14:03:36;;;;;;;4.63;3.47;;;27.10;67.80;;;;;;6128921;28;80459;-59
2023/08/15 14:06:37;;;;;;;5.93;4.40;;;27.10;67.80;;;;;;6137558;28;80597;-60
2023/08/15 14:09:37;;;;;;;4.40;3.92;;;27.10;67.80;;;;;;6127324;28;86662;-59
2023/08/15 14:12:38;;;;;;;4.47;3.70;;;27.10;67.80;;;;;;6142026;28;82051;-59
2023/08/15 14:15:38;;;;;;;4.53;4.07;;;27.10;67.80;;;;;;6128768;28;80423;-58
2023/08/15 14:18:39;;;;;;;7.07;4.05;;;27.10;67.80;;;;;;6149019;28;80522;-58
2023/08/15 14:21:39;;;;;;;5.90;3.88;;;27.10;67.80;;;;;;6117946;28;80933;-60
2023/08/15 14:24:46;;;;;;;4.97;3.92;;;27.10;67.50;;;;;;6108508;28;80524;-59
2023/08/15 14:27:47;;;;;;;5.63;3.88;;;27.10;67.40;;;;;;6108843;28;81269;-59
2023/08/15 14:30:47;;;;;;;4.25;3.50;;;27.10;67.60;;;;;;6127793;28;80859;-58
2023/08/15 14:33:48;;;;;;;3.90;3.42;;;27.10;67.40;;;;;;6150588;28;82852;-58
2023/08/15 14:36:49;;;;;;;3.97;3.60;;;27.10;67.40;;;;;;6143032;28;80586;-58
2023/08/15 14:39:49;;;;;;;7.03;4.22;;;27.10;67.60;;;;;;6129405;28;80485;-58
2023/08/15 14:42:50;;;;;;;4.13;3.63;;;27.10;67.50;;;;;;6119877;28;81076;-60
2023/08/15 14:45:50;;;;;;;4.47;3.53;;;27.10;67.70;;;;;;6096036;28;85369;-58
2023/08/15 14:48:51;;;;;;;6.00;4.10;;;27.10;67.80;;;;;;6100759;28;82794;-53
2023/08/15 14:51:51;;;;;;;8.85;4.60;;;27.10;67.60;;;;;;6140210;28;81377;-58
2023/08/15 14:54:52;;;;;;;10.65;4.43;;;27.30;68.50;;;;;;6120795;28;80859;-60
2023/08/15 14:57:52;;;;;;;12.88;4.32;;;27.30;68.60;;;;;;6112263;28;86113;-63
2023/08/15 15:00:53;;;;;;;6.65;4.55;;;27.30;67.70;;;;;;6125868;28;81834;-61
2023/08/15 15:03:55;;;;;;;10.32;4.63;;;27.30;67.60;;;;;;6115704;28;82061;-60
2023/08/15 15:06:56;;;;;;;6.85;3.65;;;27.30;68.80;;;;;;6110508;28;80851;-61
2023/08/15 15:09:56;;;;;;;7.57;4.30;;;27.40;68.30;;;;;;6113161;28;83696;-59
2023/08/15 15:12:57;;;;;;;6.65;4.15;;;27.30;68.60;;;;;;6127028;28;81465;-59
2023/08/15 15:15:57;;;;;;;7.30;4.68;;;27.40;69.60;;;;;;6124078;28;81787;-58
2023/08/15 15:18:58;;;;;;;8.30;4.68;;;27.40;70.20;;;;;;6121410;28;80822;-58
2023/08/15 15:21:59;;;;;;;8.85;4.45;;;27.40;69.60;;;;;;6124427;28;81047;-60
2023/08/15 15:24:59;;;;;;;6.95;4.20;;;27.40;69.00;;;;;;6127153;28;82975;-59
2023/08/15 15:28:00;;;;;;;5.38;4.43;;;27.40;69.20;;;;;;6123184;28;80958;-61
2023/08/15 15:31:00;;;;;;;6.80;4.32;;;27.40;69.10;;;;;;6127518;28;80659;-59
2023/08/15 15:34:01;;;;;;;10.65;4.97;;;27.40;69.10;;;;;;6125490;28;80536;-59